Terminal Aerodrome Forecast
Issued by NWS

Home | Current Version | Previous Version | Text Only | Print | Product List | Glossary On
Versions: 1 2 3 4 5 6 7 8 9 10 11 12 13 14 15 16 17 18 19 20 21 22 23 24 25 26 27
000
FTUS41 KCAR 301728 AAB
TAFBHB
TAF AMD
KBHB 301728Z 3017/0118 19008KT P6SM BKN070
     FM010400 17004KT 5SM BR SCT003
     FM010600 VRB03KT 2SM BR BKN002
     FM011300 16009KT P6SM BKN025
      AMD LTD TO CLD VIS AND WIND=

USA.gov is the U.S. government's official web portal to all federal, state and local government web resources and services.